Time;durP1;ratioP1;P1;durP2;ratioP2;P2;SDS_P1;SDS_P2;PMS_P1;PMS_P2;Temp;Humidity;BMP_temperature;BMP_pressure;BME280_temperature;BME280_humidity;BME280_pressure;Samples;Min_cycle;Max_cycle;Signal;HPM_P1;HPM_P2
2023/10/21 00:00:08;;;;;;;1.58;1.42;;;;;;;;;;5019826;28;20311;-48
2023/10/21 00:02:34;;;;;;;2.03;1.80;;;;;;;;;;5017123;28;20585;-48
2023/10/21 00:05:00;;;;;;;1.63;1.52;;;;;;;;;;5028573;28;20188;-48
2023/10/21 00:07:26;;;;;;;1.60;1.50;;;;;;;;;;5028247;28;20199;-48
2023/10/21 00:09:52;;;;;;;1.85;1.75;;;;;;;;;;5030217;28;20250;-48
2023/10/21 00:12:18;;;;;;;2.20;2.00;;;;;;;;;;5026627;28;20188;-49
2023/10/21 00:14:44;;;;;;;2.08;1.88;;;;;;;;;;5033065;28;20226;-49
2023/10/21 00:17:10;;;;;;;1.73;1.63;;;;;;;;;;5032416;28;20184;-48
2023/10/21 00:19:36;;;;;;;1.80;1.70;;;;;;;;;;5031784;28;20211;-48
2023/10/21 00:22:01;;;;;;;1.60;1.50;;;;;;;;;;5026312;28;20207;-48
2023/10/21 00:24:27;;;;;;;2.67;1.92;;;;;;;;;;5024432;28;20204;-48
2023/10/21 00:26:53;;;;;;;1.80;1.70;;;;;;;;;;5033757;28;20627;-48
2023/10/21 00:29:19;;;;;;;1.58;1.48;;;;;;;;;;5031016;28;20442;-48
2023/10/21 00:31:45;;;;;;;1.95;1.60;;;;;;;;;;5030484;28;20215;-48
2023/10/21 00:34:11;;;;;;;2.35;2.08;;;;;;;;;;5028917;28;20187;-48
2023/10/21 00:36:38;;;;;;;1.88;1.77;;;;;;;;;;5034182;28;20179;-48
2023/10/21 00:39:05;;;;;;;2.00;1.80;;;;;;;;;;5026892;28;20471;-49
2023/10/21 00:41:31;;;;;;;1.80;1.70;;;;;;;;;;5021370;28;20540;-48
2023/10/21 00:43:57;;;;;;;1.92;1.83;;;;;;;;;;5025715;28;20543;-48
2023/10/21 00:46:26;;;;;;;1.88;1.67;;;;;;;;;;5031075;28;20191;-49
2023/10/21 00:48:52;;;;;;;1.80;1.70;;;;;;;;;;5035408;28;20241;-49
2023/10/21 00:51:19;;;;;;;1.50;1.40;;;;;;;;;;5033935;28;20211;-48
2023/10/21 00:53:46;;;;;;;5.75;1.85;;;;;;;;;;5027408;28;20184;-49
2023/10/21 00:56:12;;;;;;;3.90;2.67;;;;;;;;;;5032057;28;20179;-48
2023/10/21 00:58:40;;;;;;;1.52;1.42;;;;;;;;;;5028951;28;20187;-49
2023/10/21 01:01:06;;;;;;;1.40;1.30;;;;;;;;;;5029751;28;20583;-48
2023/10/21 01:03:33;;;;;;;3.33;1.65;;;;;;;;;;5028540;28;20278;-48
2023/10/21 01:05:59;;;;;;;1.50;1.40;;;;;;;;;;5034290;28;20272;-48
2023/10/21 01:08:25;;;;;;;1.80;1.70;;;;;;;;;;5030973;28;20192;-48
2023/10/21 01:10:51;;;;;;;1.88;1.67;;;;;;;;;;5029658;28;20219;-48
2023/10/21 01:13:17;;;;;;;1.77;1.67;;;;;;;;;;5024294;28;20207;-49
2023/10/21 01:15:43;;;;;;;2.17;1.52;;;;;;;;;;5033273;28;20184;-48
2023/10/21 01:18:09;;;;;;;1.75;1.35;;;;;;;;;;5023525;28;20187;-48
2023/10/21 01:20:41;;;;;;;1.50;1.40;;;;;;;;;;5034109;28;20279;-48
2023/10/21 01:23:15;;;;;;;2.03;1.83;;;;;;;;;;5022661;28;20173;-48
2023/10/21 01:25:41;;;;;;;1.92;1.70;;;;;;;;;;5027231;28;20191;-48
2023/10/21 01:28:07;;;;;;;1.60;1.50;;;;;;;;;;5030057;28;20467;-48
2023/10/21 01:30:34;;;;;;;1.50;1.40;;;;;;;;;;5025260;28;20286;-49
2023/10/21 01:33:00;;;;;;;1.60;1.50;;;;;;;;;;5020451;28;20182;-49
2023/10/21 01:35:26;;;;;;;1.98;1.77;;;;;;;;;;5030540;28;20649;-48
2023/10/21 01:37:52;;;;;;;1.95;1.75;;;;;;;;;;5029091;28;20263;-49
2023/10/21 01:40:17;;;;;;;1.92;1.83;;;;;;;;;;5031062;28;20179;-49
2023/10/21 01:42:43;;;;;;;1.75;1.52;;;;;;;;;;5027454;28;20193;-49
2023/10/21 01:45:10;;;;;;;1.70;1.60;;;;;;;;;;5033915;28;20230;-49
2023/10/21 01:47:36;;;;;;;1.30;1.23;;;;;;;;;;5031621;28;20583;-49
2023/10/21 01:50:03;;;;;;;2.08;1.80;;;;;;;;;;5029429;28;20466;-49
2023/10/21 01:52:29;;;;;;;1.70;1.60;;;;;;;;;;5026931;28;20556;-49
2023/10/21 01:54:55;;;;;;;1.60;1.50;;;;;;;;;;5026988;28;20192;-49
2023/10/21 01:57:21;;;;;;;1.60;1.50;;;;;;;;;;5030598;28;20778;-49
2023/10/21 01:59:47;;;;;;;2.25;1.70;;;;;;;;;;5033105;28;20200;-48
2023/10/21 02:02:13;;;;;;;1.48;1.38;;;;;;;;;;5029263;28;20191;-48
2023/10/21 02:04:39;;;;;;;2.05;1.77;;;;;;;;;;5030536;28;20190;-48
2023/10/21 02:07:05;;;;;;;1.65;1.55;;;;;;;;;;5025803;28;20578;-48
2023/10/21 02:09:31;;;;;;;1.48;1.33;;;;;;;;;;5031012;28;20195;-48
2023/10/21 02:11:57;;;;;;;2.65;1.60;;;;;;;;;;5030986;28;20188;-48
2023/10/21 02:14:24;;;;;;;1.40;1.30;;;;;;;;;;5022986;28;20541;-48
2023/10/21 02:16:50;;;;;;;1.63;1.52;;;;;;;;;;5030401;28;20181;-48
2023/10/21 02:19:16;;;;;;;1.50;1.30;;;;;;;;;;5030227;28;20180;-48
2023/10/21 02:21:42;;;;;;;1.40;1.30;;;;;;;;;;5026925;28;20188;-49
2023/10/21 02:24:08;;;;;;;1.50;1.40;;;;;;;;;;5026192;28;20233;-48
2023/10/21 02:26:34;;;;;;;1.45;1.30;;;;;;;;;;5026200;28;20188;-48
2023/10/21 02:29:00;;;;;;;1.40;1.30;;;;;;;;;;5022245;28;20193;-49
2023/10/21 02:31:26;;;;;;;1.60;1.50;;;;;;;;;;5032460;28;20203;-49
2023/10/21 02:33:52;;;;;;;2.45;1.45;;;;;;;;;;5022982;28;20184;-50
2023/10/21 02:36:18;;;;;;;1.45;1.35;;;;;;;;;;5034121;28;20187;-49
2023/10/21 02:38:45;;;;;;;1.30;1.20;;;;;;;;;;5028000;28;20183;-50
2023/10/21 02:41:11;;;;;;;1.42;1.33;;;;;;;;;;5033856;28;20183;-49
2023/10/21 02:43:37;;;;;;;1.58;1.48;;;;;;;;;;5028133;28;20192;-49
2023/10/21 02:46:08;;;;;;;1.48;1.38;;;;;;;;;;5021436;28;20498;-49
2023/10/21 02:48:34;;;;;;;1.33;1.23;;;;;;;;;;5028997;28;20180;-49
2023/10/21 02:51:00;;;;;;;1.65;1.48;;;;;;;;;;5032445;28;20230;-49
2023/10/21 02:53:26;;;;;;;1.30;1.20;;;;;;;;;;5028646;28;20195;-49
2023/10/21 02:55:52;;;;;;;1.45;1.35;;;;;;;;;;5024767;28;20184;-50
2023/10/21 02:58:18;;;;;;;1.50;1.40;;;;;;;;;;5027987;28;20191;-49
2023/10/21 03:00:43;;;;;;;1.35;1.25;;;;;;;;;;5031058;28;20490;-49
2023/10/21 03:03:09;;;;;;;1.33;1.23;;;;;;;;;;5030164;28;20188;-49
2023/10/21 03:05:35;;;;;;;1.48;1.38;;;;;;;;;;5031784;28;20274;-49
2023/10/21 03:08:02;;;;;;;1.88;1.40;;;;;;;;;;5033431;28;20563;-49
2023/10/21 03:10:28;;;;;;;1.30;1.20;;;;;;;;;;5031407;28;20199;-50
2023/10/21 03:12:54;;;;;;;1.50;1.40;;;;;;;;;;5022986;28;20264;-49
2023/10/21 03:15:20;;;;;;;1.40;1.30;;;;;;;;;;5032410;28;20260;-49
2023/10/21 03:17:46;;;;;;;1.77;1.67;;;;;;;;;;5028899;28;20300;-48
2023/10/21 03:20:12;;;;;;;1.20;1.10;;;;;;;;;;5029148;28;20195;-49
2023/10/21 03:22:38;;;;;;;1.27;1.10;;;;;;;;;;5029718;28;20192;-49
2023/10/21 03:25:05;;;;;;;1.30;1.20;;;;;;;;;;5030947;28;20183;-49
2023/10/21 03:27:32;;;;;;;1.30;1.20;;;;;;;;;;5028350;28;20180;-49
2023/10/21 03:29:58;;;;;;;1.30;1.20;;;;;;;;;;5023009;28;20200;-49
2023/10/21 03:32:23;;;;;;;1.30;1.20;;;;;;;;;;5020777;28;20198;-49
2023/10/21 03:34:49;;;;;;;1.30;1.20;;;;;;;;;;5025270;28;20564;-49
2023/10/21 03:37:15;;;;;;;1.15;1.15;;;;;;;;;;5029281;28;20702;-49
2023/10/21 03:39:41;;;;;;;1.27;1.17;;;;;;;;;;5032850;28;20262;-48
2023/10/21 03:42:07;;;;;;;1.05;1.00;;;;;;;;;;5028784;28;20194;-48
2023/10/21 03:44:33;;;;;;;1.45;1.35;;;;;;;;;;5031032;28;20283;-49
2023/10/21 03:46:59;;;;;;;1.30;1.20;;;;;;;;;;5037338;28;20314;-49
2023/10/21 03:49:25;;;;;;;2.17;1.20;;;;;;;;;;5035945;28;20191;-49
2023/10/21 03:51:51;;;;;;;1.20;1.10;;;;;;;;;;5027490;28;20216;-48
2023/10/21 03:54:17;;;;;;;1.83;1.30;;;;;;;;;;5029430;28;20193;-49
2023/10/21 03:56:43;;;;;;;1.40;1.30;;;;;;;;;;5033615;28;20176;-49
2023/10/21 03:59:09;;;;;;;1.20;1.17;;;;;;;;;;5035181;28;20180;-49
2023/10/21 04:01:35;;;;;;;1.00;1.00;;;;;;;;;;5030419;28;20196;-49
2023/10/21 04:04:01;;;;;;;1.30;1.20;;;;;;;;;;5030492;28;20194;-49
2023/10/21 04:06:27;;;;;;;1.30;1.20;;;;;;;;;;5029665;28;20188;-49
2023/10/21 04:08:53;;;;;;;1.23;1.13;;;;;;;;;;5029789;28;20316;-49
2023/10/21 04:11:20;;;;;;;1.23;1.13;;;;;;;;;;5033832;28;20499;-49
2023/10/21 04:13:46;;;;;;;1.02;1.02;;;;;;;;;;5030543;28;20186;-49
2023/10/21 04:16:13;;;;;;;1.17;1.10;;;;;;;;;;5032872;28;20180;-49
2023/10/21 04:18:39;;;;;;;1.20;1.08;;;;;;;;;;5027215;28;20239;-49
2023/10/21 04:21:05;;;;;;;1.20;1.10;;;;;;;;;;5028756;28;20270;-49
2023/10/21 04:23:31;;;;;;;1.30;1.20;;;;;;;;;;5029690;28;20196;-49
2023/10/21 04:25:57;;;;;;;1.75;1.10;;;;;;;;;;5034676;28;20238;-50
2023/10/21 04:28:23;;;;;;;2.20;1.27;;;;;;;;;;5029874;28;20180;-49
2023/10/21 04:30:49;;;;;;;2.55;1.40;;;;;;;;;;5030153;28;20211;-49
2023/10/21 04:33:15;;;;;;;2.60;1.40;;;;;;;;;;5029233;28;20256;-49
2023/10/21 04:35:41;;;;;;;2.28;1.40;;;;;;;;;;5036516;28;20194;-49
2023/10/21 04:38:10;;;;;;;2.15;1.23;;;;;;;;;;5036430;28;20230;-49
2023/10/21 04:40:36;;;;;;;2.30;1.60;;;;;;;;;;5030859;28;20191;-48
2023/10/21 04:43:03;;;;;;;1.55;1.17;;;;;;;;;;5025831;28;20231;-48
2023/10/21 04:45:29;;;;;;;4.50;1.83;;;;;;;;;;5027967;28;20187;-49
2023/10/21 04:47:55;;;;;;;2.85;1.60;;;;;;;;;;5031085;28;20196;-49
2023/10/21 04:50:21;;;;;;;1.40;1.30;;;;;;;;;;5029236;28;20213;-49
2023/10/21 04:52:47;;;;;;;1.50;1.30;;;;;;;;;;5031770;28;20564;-49
2023/10/21 04:55:13;;;;;;;2.72;1.48;;;;;;;;;;5027541;28;20199;-49
2023/10/21 04:57:40;;;;;;;3.78;1.20;;;;;;;;;;5033432;28;20188;-49
2023/10/21 05:00:08;;;;;;;4.28;1.10;;;;;;;;;;5033173;28;20198;-49
2023/10/21 05:02:34;;;;;;;2.67;1.25;;;;;;;;;;5032230;28;20264;-49
2023/10/21 05:05:00;;;;;;;2.13;1.38;;;;;;;;;;5029932;28;20271;-49
2023/10/21 05:07:26;;;;;;;3.05;1.50;;;;;;;;;;5031505;28;20538;-49
2023/10/21 05:09:52;;;;;;;3.58;1.40;;;;;;;;;;5026796;28;20768;-49
2023/10/21 05:12:19;;;;;;;2.25;1.45;;;;;;;;;;5034926;28;20263;-50
2023/10/21 05:14:45;;;;;;;2.47;1.38;;;;;;;;;;5032670;28;20187;-49
2023/10/21 05:17:11;;;;;;;1.98;1.30;;;;;;;;;;5032792;28;20648;-49
2023/10/21 05:19:37;;;;;;;2.45;1.10;;;;;;;;;;5023892;28;20259;-48
2023/10/21 05:22:03;;;;;;;1.60;1.17;;;;;;;;;;5034568;28;20233;-50
2023/10/21 05:24:29;;;;;;;2.15;1.40;;;;;;;;;;5025684;28;20479;-50
2023/10/21 05:26:55;;;;;;;3.20;1.25;;;;;;;;;;5026623;28;20188;-49
2023/10/21 05:29:21;;;;;;;1.63;1.25;;;;;;;;;;5032713;28;20202;-51
2023/10/21 05:31:49;;;;;;;1.95;1.30;;;;;;;;;;5023174;28;20212;-49
2023/10/21 05:34:17;;;;;;;1.77;1.30;;;;;;;;;;5030631;28;20190;-49
2023/10/21 05:36:44;;;;;;;1.20;1.10;;;;;;;;;;5024366;28;20600;-50
2023/10/21 05:39:12;;;;;;;3.42;1.40;;;;;;;;;;5034852;28;20176;-49
2023/10/21 05:41:38;;;;;;;1.35;1.25;;;;;;;;;;5031279;28;20518;-49
2023/10/21 05:44:04;;;;;;;1.67;1.00;;;;;;;;;;5031151;28;20208;-49
2023/10/21 05:46:30;;;;;;;3.03;1.30;;;;;;;;;;5035204;28;20559;-49
2023/10/21 05:48:56;;;;;;;1.67;1.00;;;;;;;;;;5032448;28;20199;-49
2023/10/21 05:51:22;;;;;;;3.13;1.30;;;;;;;;;;5028860;28;20207;-49
2023/10/21 05:53:48;;;;;;;1.35;1.25;;;;;;;;;;5024776;28;20267;-49
2023/10/21 05:56:16;;;;;;;1.50;1.15;;;;;;;;;;5034030;28;20603;-49
2023/10/21 05:58:42;;;;;;;1.27;1.10;;;;;;;;;;5030006;28;20228;-49
2023/10/21 06:01:08;;;;;;;2.00;1.17;;;;;;;;;;5032157;28;20233;-49
2023/10/21 06:03:39;;;;;;;1.08;0.98;;;;;;;;;;5029419;28;20184;-49
2023/10/21 06:06:05;;;;;;;1.13;1.02;;;;;;;;;;5027772;28;20282;-49
2023/10/21 06:08:31;;;;;;;1.25;0.93;;;;;;;;;;5034544;28;20184;-49
2023/10/21 06:10:58;;;;;;;1.63;1.05;;;;;;;;;;5026526;28;20218;-50
2023/10/21 06:13:27;;;;;;;1.48;1.13;;;;;;;;;;5026498;28;20184;-49
2023/10/21 06:15:53;;;;;;;2.47;0.95;;;;;;;;;;5030812;28;20219;-50
2023/10/21 06:18:20;;;;;;;1.67;0.90;;;;;;;;;;5034698;28;20801;-48
2023/10/21 06:20:46;;;;;;;1.17;0.90;;;;;;;;;;5024462;28;20221;-48
2023/10/21 06:23:12;;;;;;;1.10;1.00;;;;;;;;;;5023717;28;20195;-49
2023/10/21 06:25:39;;;;;;;1.15;1.02;;;;;;;;;;5026097;28;20184;-49
2023/10/21 06:28:05;;;;;;;1.02;1.00;;;;;;;;;;5025973;28;20195;-50
2023/10/21 06:30:31;;;;;;;1.27;0.90;;;;;;;;;;5029660;28;20203;-49
2023/10/21 06:32:57;;;;;;;0.80;0.80;;;;;;;;;;5017393;28;20196;-49
2023/10/21 06:35:23;;;;;;;1.00;0.90;;;;;;;;;;5033651;28;20195;-49
2023/10/21 06:37:49;;;;;;;0.80;0.75;;;;;;;;;;5034239;28;20184;-50
2023/10/21 06:40:15;;;;;;;1.90;0.80;;;;;;;;;;5023075;28;20219;-48
2023/10/21 06:42:41;;;;;;;0.70;0.70;;;;;;;;;;5026717;28;20215;-50
2023/10/21 06:45:08;;;;;;;0.77;0.70;;;;;;;;;;5019796;28;20517;-50
2023/10/21 06:47:34;;;;;;;1.83;0.93;;;;;;;;;;5027993;28;20258;-50
2023/10/21 06:50:00;;;;;;;1.65;0.93;;;;;;;;;;5020302;28;20208;-50
2023/10/21 06:52:26;;;;;;;0.70;0.70;;;;;;;;;;5034683;28;20623;-49
2023/10/21 06:54:53;;;;;;;1.02;0.82;;;;;;;;;;5025134;28;20264;-50
2023/10/21 06:57:22;;;;;;;1.15;0.70;;;;;;;;;;5024551;28;20208;-50
2023/10/21 06:59:48;;;;;;;1.83;0.88;;;;;;;;;;5032792;28;20293;-49
2023/10/21 07:02:14;;;;;;;1.38;0.98;;;;;;;;;;5028090;28;20188;-49
2023/10/21 07:04:40;;;;;;;0.88;0.88;;;;;;;;;;5030372;28;20442;-49
2023/10/21 07:07:06;;;;;;;0.77;0.60;;;;;;;;;;5034388;28;20490;-49
2023/10/21 07:09:32;;;;;;;1.83;0.70;;;;;;;;;;5024907;28;20499;-49
2023/10/21 07:11:58;;;;;;;0.50;0.50;;;;;;;;;;5024230;28;20212;-49
2023/10/21 07:14:24;;;;;;;0.70;0.70;;;;;;;;;;5028342;28;20223;-50
2023/10/21 07:16:50;;;;;;;0.75;0.75;;;;;;;;;;5034402;28;20187;-51
2023/10/21 07:19:16;;;;;;;0.70;0.70;;;;;;;;;;5030505;28;20204;-49
2023/10/21 07:21:42;;;;;;;0.95;0.75;;;;;;;;;;5033887;28;20503;-49
2023/10/21 07:24:11;;;;;;;0.85;0.80;;;;;;;;;;5030197;28;20204;-49
2023/10/21 07:26:37;;;;;;;0.75;0.75;;;;;;;;;;5035972;28;20184;-50
2023/10/21 07:29:03;;;;;;;1.60;0.70;;;;;;;;;;5035674;28;20446;-49
2023/10/21 07:31:29;;;;;;;0.60;0.60;;;;;;;;;;5037051;28;20230;-49
2023/10/21 07:33:55;;;;;;;0.50;0.50;;;;;;;;;;5028584;28;20184;-49
2023/10/21 07:36:21;;;;;;;0.70;0.60;;;;;;;;;;5036249;28;20194;-49
2023/10/21 07:38:47;;;;;;;0.60;0.60;;;;;;;;;;5037438;28;20188;-49
2023/10/21 07:41:13;;;;;;;1.20;0.65;;;;;;;;;;5033647;28;20179;-49
2023/10/21 07:43:40;;;;;;;0.60;0.60;;;;;;;;;;5036937;28;20176;-49
2023/10/21 07:46:06;;;;;;;0.85;0.60;;;;;;;;;;5027775;28;20184;-49
2023/10/21 07:48:32;;;;;;;0.60;0.60;;;;;;;;;;5030893;28;20205;-49
2023/10/21 07:50:58;;;;;;;0.60;0.60;;;;;;;;;;5029601;28;20216;-49
2023/10/21 07:53:24;;;;;;;0.70;0.60;;;;;;;;;;5034289;28;20195;-49
2023/10/21 07:55:50;;;;;;;1.05;0.70;;;;;;;;;;5028584;28;20184;-49
2023/10/21 07:58:16;;;;;;;0.70;0.60;;;;;;;;;;5027880;28;20279;-49
2023/10/21 08:00:42;;;;;;;0.40;0.40;;;;;;;;;;5033225;28;20275;-49
2023/10/21 08:03:08;;;;;;;0.52;0.50;;;;;;;;;;5028145;28;20234;-48
2023/10/21 08:05:34;;;;;;;0.95;0.70;;;;;;;;;;5035202;28;20183;-49
2023/10/21 08:08:00;;;;;;;0.40;0.40;;;;;;;;;;5026153;28;20192;-52
2023/10/21 08:10:26;;;;;;;0.50;0.50;;;;;;;;;;5034470;28;20253;-49
2023/10/21 08:12:52;;;;;;;0.50;0.50;;;;;;;;;;5033915;28;20218;-49
2023/10/21 08:15:18;;;;;;;0.40;0.40;;;;;;;;;;5035953;28;20186;-49
2023/10/21 08:17:44;;;;;;;0.60;0.60;;;;;;;;;;5030328;28;20184;-49
2023/10/21 08:20:10;;;;;;;0.60;0.60;;;;;;;;;;5034742;28;20536;-49
2023/10/21 08:22:36;;;;;;;0.40;0.40;;;;;;;;;;5030222;28;20184;-49
2023/10/21 08:25:02;;;;;;;0.50;0.50;;;;;;;;;;5025763;28;20550;-49
2023/10/21 08:27:28;;;;;;;0.30;0.30;;;;;;;;;;5036667;28;20550;-49
2023/10/21 08:29:54;;;;;;;0.47;0.47;;;;;;;;;;5031554;28;20558;-49
2023/10/21 08:32:20;;;;;;;0.50;0.50;;;;;;;;;;5026853;28;20234;-49
2023/10/21 08:34:46;;;;;;;0.60;0.60;;;;;;;;;;5024585;28;20187;-49
2023/10/21 08:37:15;;;;;;;0.60;0.60;;;;;;;;;;5036642;28;20237;-49
2023/10/21 08:39:43;;;;;;;0.50;0.50;;;;;;;;;;5032195;28;20172;-49
2023/10/21 08:42:09;;;;;;;0.65;0.50;;;;;;;;;;5036619;28;20183;-48
2023/10/21 08:44:36;;;;;;;0.40;0.40;;;;;;;;;;5027197;28;20409;-49
2023/10/21 08:47:04;;;;;;;0.55;0.45;;;;;;;;;;5032429;28;20552;-49
2023/10/21 08:49:33;;;;;;;0.40;0.40;;;;;;;;;;5031181;28;20207;-49
2023/10/21 08:52:00;;;;;;;0.80;0.60;;;;;;;;;;5034053;28;20200;-49
2023/10/21 08:54:26;;;;;;;0.77;0.40;;;;;;;;;;5027155;28;20186;-49
2023/10/21 08:56:52;;;;;;;0.65;0.45;;;;;;;;;;5031067;28;21537;-49
2023/10/21 08:59:18;;;;;;;0.50;0.50;;;;;;;;;;5034907;28;20566;-49
2023/10/21 09:01:46;;;;;;;0.70;0.60;;;;;;;;;;5035403;28;20194;-48
2023/10/21 09:04:13;;;;;;;0.77;0.45;;;;;;;;;;5030103;28;20282;-49
2023/10/21 09:06:59;;;;;;;0.63;0.57;;;;;;;;;;5030875;28;20231;-48
2023/10/21 09:09:26;;;;;;;0.82;0.55;;;;;;;;;;5020403;28;20187;-49
2023/10/21 09:12:13;;;;;;;1.13;0.65;;;;;;;;;;5036005;28;20316;-49
2023/10/21 09:14:52;;;;;;;0.40;0.40;;;;;;;;;;5026830;28;20181;-49
2023/10/21 09:17:19;;;;;;;1.63;0.57;;;;;;;;;;5030260;28;20172;-49
2023/10/21 09:19:49;;;;;;;1.73;0.45;;;;;;;;;;5034224;28;20184;-48
2023/10/21 09:22:22;;;;;;;1.40;0.60;;;;;;;;;;5030970;28;20199;-49
2023/10/21 09:24:48;;;;;;;0.50;0.50;;;;;;;;;;5022606;28;20191;-49
2023/10/21 09:27:14;;;;;;;0.43;0.40;;;;;;;;;;5036694;28;20257;-49
2023/10/21 09:29:40;;;;;;;1.35;0.50;;;;;;;;;;5030768;28;20468;-49
2023/10/21 09:32:06;;;;;;;0.47;0.40;;;;;;;;;;5032086;28;20211;-48
2023/10/21 09:34:33;;;;;;;0.55;0.50;;;;;;;;;;5031076;28;20190;-49
2023/10/21 09:37:00;;;;;;;0.50;0.50;;;;;;;;;;5027143;28;20172;-49
2023/10/21 09:39:29;;;;;;;1.50;0.38;;;;;;;;;;5032408;28;20184;-49
2023/10/21 09:41:55;;;;;;;0.38;0.35;;;;;;;;;;5031942;28;20222;-49
2023/10/21 09:44:21;;;;;;;0.40;0.40;;;;;;;;;;5018673;28;20594;-49
2023/10/21 09:46:49;;;;;;;0.57;0.40;;;;;;;;;;5029020;28;20267;-49
2023/10/21 09:49:16;;;;;;;0.22;0.22;;;;;;;;;;5025512;28;20184;-49
2023/10/21 09:52:11;;;;;;;1.30;0.90;;;;;;;;;;5027671;28;20270;-49
2023/10/21 09:54:43;;;;;;;0.20;0.20;;;;;;;;;;5020655;28;20195;-49
2023/10/21 09:57:13;;;;;;;0.77;0.40;;;;;;;;;;5027426;28;20176;-49
2023/10/21 09:59:40;;;;;;;2.72;0.50;;;;;;;;;;5030223;28;20533;-49
2023/10/21 10:02:06;;;;;;;0.43;0.40;;;;;;;;;;5029481;28;20188;-49
2023/10/21 10:04:34;;;;;;;0.40;0.40;;;;;;;;;;5025594;28;20299;-49
2023/10/21 10:07:05;;;;;;;1.25;0.50;;;;;;;;;;5026877;28;20207;-49
2023/10/21 10:09:33;;;;;;;0.82;0.50;;;;;;;;;;5026315;28;20184;-50
2023/10/21 10:12:00;;;;;;;0.45;0.38;;;;;;;;;;5025774;28;20208;-49
2023/10/21 10:14:28;;;;;;;0.30;0.30;;;;;;;;;;5024594;28;20200;-49
2023/10/21 10:16:54;;;;;;;0.40;0.38;;;;;;;;;;5031660;28;20175;-49
2023/10/21 10:19:55;;;;;;;0.95;0.30;;;;;;;;;;5030566;28;20466;-49
2023/10/21 10:22:28;;;;;;;0.20;0.20;;;;;;;;;;4950104;29;20178;-49
2023/10/21 10:25:10;;;;;;;1.02;0.25;;;;;;;;;;5019197;28;20203;-49
2023/10/21 10:27:40;;;;;;;0.50;0.40;;;;;;;;;;5030647;28;20251;-49
2023/10/21 10:30:07;;;;;;;0.60;0.60;;;;;;;;;;5031150;28;20353;-49
2023/10/21 10:32:43;;;;;;;0.20;0.20;;;;;;;;;;5028102;28;20186;-49
2023/10/21 10:35:09;;;;;;;0.20;0.20;;;;;;;;;;5027774;28;20184;-49
2023/10/21 10:37:35;;;;;;;0.28;0.28;;;;;;;;;;5029943;28;20191;-49
2023/10/21 10:40:05;;;;;;;0.20;0.20;;;;;;;;;;5029984;28;20469;-49
2023/10/21 10:42:34;;;;;;;0.30;0.30;;;;;;;;;;5030770;28;20199;-49
2023/10/21 10:45:00;;;;;;;0.20;0.20;;;;;;;;;;5030757;28;20179;-49
2023/10/21 10:47:29;;;;;;;0.35;0.35;;;;;;;;;;5030427;28;20180;-49
2023/10/21 10:49:56;;;;;;;0.28;0.28;;;;;;;;;;5030371;28;20175;-49
2023/10/21 10:52:28;;;;;;;0.32;0.30;;;;;;;;;;5033982;28;20775;-49
2023/10/21 10:54:54;;;;;;;0.28;0.28;;;;;;;;;;5028188;28;20186;-49
2023/10/21 10:57:21;;;;;;;0.20;0.20;;;;;;;;;;5026540;28;20290;-49
2023/10/21 10:59:49;;;;;;;0.90;0.30;;;;;;;;;;5023237;28;20195;-49
2023/10/21 11:02:19;;;;;;;0.40;0.38;;;;;;;;;;5023384;28;20208;-49
2023/10/21 11:04:49;;;;;;;0.30;0.30;;;;;;;;;;5028104;28;20200;-48
2023/10/21 11:07:16;;;;;;;0.22;0.22;;;;;;;;;;5026686;28;20187;-48
2023/10/21 11:09:42;;;;;;;0.20;0.20;;;;;;;;;;5028773;28;20230;-49
2023/10/21 11:12:08;;;;;;;0.20;0.20;;;;;;;;;;5026124;28;20208;-49
2023/10/21 11:14:34;;;;;;;0.30;0.30;;;;;;;;;;5022936;28;20208;-49
2023/10/21 11:17:00;;;;;;;0.20;0.20;;;;;;;;;;5026822;28;20183;-49
2023/10/21 11:19:27;;;;;;;0.30;0.30;;;;;;;;;;5022965;28;20202;-49
2023/10/21 11:21:52;;;;;;;0.30;0.30;;;;;;;;;;5028205;28;20171;-49
2023/10/21 11:24:22;;;;;;;0.20;0.20;;;;;;;;;;5024112;28;20215;-49
2023/10/21 11:26:49;;;;;;;0.50;0.40;;;;;;;;;;5030101;28;20180;-49
2023/10/21 11:29:15;;;;;;;0.30;0.30;;;;;;;;;;5025025;28;20184;-49
2023/10/21 11:31:42;;;;;;;0.20;0.20;;;;;;;;;;5025723;28;20298;-49
2023/10/21 11:34:12;;;;;;;3.28;0.30;;;;;;;;;;5030951;28;20203;-49
2023/10/21 11:36:38;;;;;;;0.30;0.30;;;;;;;;;;5025118;28;20230;-49
2023/10/21 11:39:15;;;;;;;0.13;0.13;;;;;;;;;;5028308;28;20335;-49
2023/10/21 11:41:45;;;;;;;0.20;0.20;;;;;;;;;;5027716;28;20195;-49
2023/10/21 11:44:11;;;;;;;0.40;0.40;;;;;;;;;;5029346;28;20208;-49
2023/10/21 11:46:37;;;;;;;0.10;0.10;;;;;;;;;;5029084;28;20188;-49
2023/10/21 11:49:04;;;;;;;0.30;0.30;;;;;;;;;;5030273;28;20184;-49
2023/10/21 11:51:30;;;;;;;0.13;0.13;;;;;;;;;;5027398;28;20305;-50
2023/10/21 11:53:56;;;;;;;0.20;0.20;;;;;;;;;;5029024;28;20190;-49
2023/10/21 12:15:17;;;;;;;0.10;0.10;;;;;;;;;;5036022;28;20440;-48
2023/10/21 12:18:14;;;;;;;0.25;0.15;;;;;;;;;;5030429;28;20176;-48
2023/10/21 12:20:50;;;;;;;0.30;0.22;;;;;;;;;;5025128;28;20195;-48
2023/10/21 12:26:40;;;;;;;0.30;0.30;;;;;;;;;;4993336;28;20211;-48
2023/10/21 12:37:52;;;;;;;0.22;0.22;;;;;;;;;;5026462;28;20218;-47
2023/10/21 12:40:37;;;;;;;0.30;0.20;;;;;;;;;;5029705;28;20191;-48
2023/10/21 12:45:54;;;;;;;0.32;0.20;;;;;;;;;;5027985;28;20188;-48
2023/10/21 12:48:19;;;;;;;0.22;0.22;;;;;;;;;;5028276;28;20551;-49
2023/10/21 12:50:46;;;;;;;1.95;0.22;;;;;;;;;;5031340;28;20207;-48
2023/10/21 12:53:12;;;;;;;1.30;0.30;;;;;;;;;;5022673;28;20272;-48
2023/10/21 12:55:38;;;;;;;0.22;0.20;;;;;;;;;;5030477;28;20215;-49
2023/10/21 12:58:05;;;;;;;0.13;0.13;;;;;;;;;;5025048;28;20212;-48
2023/10/21 13:00:31;;;;;;;0.20;0.20;;;;;;;;;;5033877;28;20203;-49
2023/10/21 13:02:57;;;;;;;0.20;0.20;;;;;;;;;;5020184;28;20191;-49
2023/10/21 13:05:23;;;;;;;0.15;0.15;;;;;;;;;;5026934;28;20240;-49
2023/10/21 13:07:49;;;;;;;0.20;0.20;;;;;;;;;;5031863;28;20469;-48
2023/10/21 13:10:18;;;;;;;0.47;0.20;;;;;;;;;;5032059;28;20524;-48
2023/10/21 13:12:46;;;;;;;0.25;0.17;;;;;;;;;;5032697;28;20172;-48
2023/10/21 13:15:12;;;;;;;0.20;0.20;;;;;;;;;;5032949;28;20290;-48
2023/10/21 13:17:41;;;;;;;0.20;0.13;;;;;;;;;;5030990;28;20976;-48
2023/10/21 13:20:16;;;;;;;0.30;0.30;;;;;;;;;;5031056;28;20207;-48
2023/10/21 13:22:43;;;;;;;0.20;0.20;;;;;;;;;;5025932;28;20164;-48
2023/10/21 13:25:09;;;;;;;0.35;0.10;;;;;;;;;;5026934;28;20475;-48
2023/10/21 13:27:36;;;;;;;0.28;0.28;;;;;;;;;;5028712;28;20687;-48
2023/10/21 13:30:10;;;;;;;0.98;0.20;;;;;;;;;;5028155;28;20258;-48
2023/10/21 13:32:37;;;;;;;0.20;0.20;;;;;;;;;;5033800;28;20305;-48
2023/10/21 13:35:09;;;;;;;0.10;0.10;;;;;;;;;;5034475;28;20279;-48
2023/10/21 13:37:36;;;;;;;0.38;0.22;;;;;;;;;;5028854;28;20216;-48
2023/10/21 13:40:03;;;;;;;0.20;0.10;;;;;;;;;;5030437;28;20229;-48
2023/10/21 13:42:28;;;;;;;0.30;0.30;;;;;;;;;;5031182;28;20179;-48
2023/10/21 13:44:54;;;;;;;3.15;0.38;;;;;;;;;;5034338;28;20426;-48
2023/10/21 13:47:20;;;;;;;0.10;0.10;;;;;;;;;;5030473;28;20195;-48
2023/10/21 13:49:46;;;;;;;2.80;0.30;;;;;;;;;;5035256;28;20266;-48
2023/10/21 13:52:12;;;;;;;0.17;0.10;;;;;;;;;;5032132;28;20215;-48
2023/10/21 13:54:38;;;;;;;0.30;0.17;;;;;;;;;;5021685;28;20454;-48
2023/10/21 13:57:05;;;;;;;0.20;0.20;;;;;;;;;;5025672;28;20246;-47
2023/10/21 13:59:31;;;;;;;0.20;0.20;;;;;;;;;;5029722;28;20179;-47
2023/10/21 14:01:57;;;;;;;0.22;0.22;;;;;;;;;;5023332;28;20188;-48
2023/10/21 14:04:25;;;;;;;0.10;0.10;;;;;;;;;;5017111;28;20184;-48
2023/10/21 14:06:52;;;;;;;0.85;0.20;;;;;;;;;;5028962;28;20180;-48
2023/10/21 14:09:24;;;;;;;1.38;0.40;;;;;;;;;;5029106;28;20465;-48
2023/10/21 14:11:51;;;;;;;0.38;0.20;;;;;;;;;;5031216;28;20211;-48
2023/10/21 14:14:17;;;;;;;0.20;0.20;;;;;;;;;;5023708;28;20187;-48
2023/10/21 14:16:43;;;;;;;0.30;0.28;;;;;;;;;;5033525;28;20255;-48
2023/10/21 14:19:09;;;;;;;1.08;0.30;;;;;;;;;;5024601;28;20173;-48
2023/10/21 14:21:36;;;;;;;2.83;0.30;;;;;;;;;;5031375;28;20188;-48
2023/10/21 14:24:02;;;;;;;0.13;0.13;;;;;;;;;;5027656;28;20180;-48
2023/10/21 14:26:28;;;;;;;0.20;0.10;;;;;;;;;;5023435;28;20198;-48
2023/10/21 14:28:56;;;;;;;1.98;0.20;;;;;;;;;;5022886;28;20198;-48
2023/10/21 14:31:31;;;;;;;0.25;0.25;;;;;;;;;;5029368;28;20464;-49
2023/10/21 14:33:57;;;;;;;5.18;0.30;;;;;;;;;;5027687;28;20191;-49
2023/10/21 14:36:23;;;;;;;0.95;0.32;;;;;;;;;;5030562;28;20214;-48
2023/10/21 14:38:50;;;;;;;1.42;0.40;;;;;;;;;;5029498;28;20209;-48
2023/10/21 14:41:16;;;;;;;0.22;0.22;;;;;;;;;;5028504;28;20192;-48
2023/10/21 14:43:42;;;;;;;0.40;0.20;;;;;;;;;;5030899;28;20183;-49
2023/10/21 14:46:09;;;;;;;1.52;0.43;;;;;;;;;;5032838;28;20184;-48
2023/10/21 14:48:35;;;;;;;0.65;0.30;;;;;;;;;;5029643;28;20180;-48
2023/10/21 14:51:02;;;;;;;0.70;0.20;;;;;;;;;;5032000;28;20628;-48
2023/10/21 14:53:28;;;;;;;0.30;0.20;;;;;;;;;;5031440;28;20187;-49
2023/10/21 14:55:54;;;;;;;0.90;0.30;;;;;;;;;;5029699;28;20454;-48
2023/10/21 14:58:24;;;;;;;2.47;0.30;;;;;;;;;;5024730;28;20184;-48
2023/10/21 15:00:50;;;;;;;0.20;0.20;;;;;;;;;;5025572;28;20554;-48
2023/10/21 15:03:19;;;;;;;0.20;0.20;;;;;;;;;;5030271;28;20199;-48
2023/10/21 15:05:46;;;;;;;0.32;0.30;;;;;;;;;;5033052;28;20189;-48
2023/10/21 15:08:14;;;;;;;0.20;0.20;;;;;;;;;;5025879;28;20194;-48
2023/10/21 15:10:39;;;;;;;0.32;0.20;;;;;;;;;;5032438;28;20215;-48
2023/10/21 15:13:07;;;;;;;0.40;0.20;;;;;;;;;;5027327;28;20199;-48
2023/10/21 15:15:33;;;;;;;0.80;0.40;;;;;;;;;;5031894;28;20179;-49